sensor_id;sensor_type;location;lat;lon;timestamp;P1;durP1;ratioP1;P2;durP2;ratioP2
830;SDS011;397;50.564;7.272;2023-06-24T00:00:42;7.90;;;7.00;;
830;SDS011;397;50.564;7.272;2023-06-24T00:03:10;7.80;;;7.00;;
830;SDS011;397;50.564;7.272;2023-06-24T00:05:39;7.23;;;6.53;;
830;SDS011;397;50.564;7.272;2023-06-24T00:08:06;8.30;;;7.50;;
830;SDS011;397;50.564;7.272;2023-06-24T00:10:34;8.27;;;7.50;;
830;SDS011;397;50.564;7.272;2023-06-24T00:13:01;7.30;;;6.57;;
830;SDS011;397;50.564;7.272;2023-06-24T00:15:29;7.57;;;6.77;;
830;SDS011;397;50.564;7.272;2023-06-24T00:17:56;7.70;;;6.90;;
830;SDS011;397;50.564;7.272;2023-06-24T00:20:26;8.77;;;7.10;;
830;SDS011;397;50.564;7.272;2023-06-24T00:22:53;10.77;;;7.23;;
830;SDS011;397;50.564;7.272;2023-06-24T00:25:21;8.00;;;7.20;;
830;SDS011;397;50.564;7.272;2023-06-24T00:27:48;7.13;;;6.53;;
830;SDS011;397;50.564;7.272;2023-06-24T00:30:15;8.63;;;7.37;;
830;SDS011;397;50.564;7.272;2023-06-24T00:32:43;7.90;;;7.10;;
830;SDS011;397;50.564;7.272;2023-06-24T00:35:11;9.57;;;8.57;;
830;SDS011;397;50.564;7.272;2023-06-24T00:37:39;8.13;;;7.40;;
830;SDS011;397;50.564;7.272;2023-06-24T00:40:08;9.30;;;7.40;;
830;SDS011;397;50.564;7.272;2023-06-24T00:42:41;9.43;;;8.00;;
830;SDS011;397;50.564;7.272;2023-06-24T00:45:12;9.03;;;8.20;;
830;SDS011;397;50.564;7.272;2023-06-24T00:47:41;8.80;;;7.13;;
830;SDS011;397;50.564;7.272;2023-06-24T00:50:10;8.90;;;8.00;;
830;SDS011;397;50.564;7.272;2023-06-24T00:52:38;7.63;;;6.93;;
830;SDS011;397;50.564;7.272;2023-06-24T00:55:07;8.50;;;7.67;;
830;SDS011;397;50.564;7.272;2023-06-24T00:57:42;9.50;;;8.60;;
830;SDS011;397;50.564;7.272;2023-06-24T01:00:11;8.87;;;7.67;;
830;SDS011;397;50.564;7.272;2023-06-24T01:02:40;10.30;;;9.30;;
830;SDS011;397;50.564;7.272;2023-06-24T01:05:09;8.43;;;7.63;;
830;SDS011;397;50.564;7.272;2023-06-24T01:07:38;7.80;;;7.10;;
830;SDS011;397;50.564;7.272;2023-06-24T01:10:07;9.57;;;8.57;;
830;SDS011;397;50.564;7.272;2023-06-24T01:12:36;9.93;;;9.07;;
830;SDS011;397;50.564;7.272;2023-06-24T01:15:06;10.47;;;8.53;;
830;SDS011;397;50.564;7.272;2023-06-24T01:20:08;8.53;;;7.63;;
830;SDS011;397;50.564;7.272;2023-06-24T01:23:08;9.73;;;8.57;;
830;SDS011;397;50.564;7.272;2023-06-24T01:28:33;10.13;;;9.13;;
830;SDS011;397;50.564;7.272;2023-06-24T01:31:24;11.43;;;10.10;;
830;SDS011;397;50.564;7.272;2023-06-24T01:34:01;9.57;;;8.63;;
830;SDS011;397;50.564;7.272;2023-06-24T01:36:35;9.67;;;8.80;;
830;SDS011;397;50.564;7.272;2023-06-24T01:39:07;8.00;;;7.20;;
830;SDS011;397;50.564;7.272;2023-06-24T01:41:40;9.73;;;8.60;;
830;SDS011;397;50.564;7.272;2023-06-24T01:44:09;9.83;;;8.17;;
830;SDS011;397;50.564;7.272;2023-06-24T01:46:38;9.47;;;8.53;;
830;SDS011;397;50.564;7.272;2023-06-24T01:49:09;10.53;;;7.73;;
830;SDS011;397;50.564;7.272;2023-06-24T01:51:39;11.60;;;8.20;;
830;SDS011;397;50.564;7.272;2023-06-24T01:54:10;8.70;;;7.80;;
830;SDS011;397;50.564;7.272;2023-06-24T01:56:40;11.03;;;7.50;;
830;SDS011;397;50.564;7.272;2023-06-24T01:59:09;11.47;;;8.70;;
830;SDS011;397;50.564;7.272;2023-06-24T02:01:38;7.90;;;7.20;;
830;SDS011;397;50.564;7.272;2023-06-24T02:04:06;8.50;;;7.80;;
830;SDS011;397;50.564;7.272;2023-06-24T02:06:36;8.40;;;7.60;;
830;SDS011;397;50.564;7.272;2023-06-24T02:09:05;9.20;;;8.30;;
830;SDS011;397;50.564;7.272;2023-06-24T02:11:34;9.57;;;8.50;;
830;SDS011;397;50.564;7.272;2023-06-24T02:14:03;9.77;;;8.97;;
830;SDS011;397;50.564;7.272;2023-06-24T02:16:32;9.33;;;7.17;;
830;SDS011;397;50.564;7.272;2023-06-24T02:19:01;8.37;;;7.67;;
830;SDS011;397;50.564;7.272;2023-06-24T02:21:30;8.03;;;7.20;;
830;SDS011;397;50.564;7.272;2023-06-24T02:23:59;8.47;;;7.67;;
830;SDS011;397;50.564;7.272;2023-06-24T02:26:27;8.33;;;7.53;;
830;SDS011;397;50.564;7.272;2023-06-24T02:28:55;9.67;;;8.77;;
830;SDS011;397;50.564;7.272;2023-06-24T02:31:23;10.00;;;8.90;;
830;SDS011;397;50.564;7.272;2023-06-24T02:33:51;9.07;;;8.27;;
830;SDS011;397;50.564;7.272;2023-06-24T02:36:19;8.73;;;8.00;;
830;SDS011;397;50.564;7.272;2023-06-24T02:38:47;9.40;;;8.50;;
830;SDS011;397;50.564;7.272;2023-06-24T02:41:14;10.37;;;9.30;;
830;SDS011;397;50.564;7.272;2023-06-24T02:43:42;9.93;;;8.70;;
830;SDS011;397;50.564;7.272;2023-06-24T02:46:09;9.33;;;8.53;;
830;SDS011;397;50.564;7.272;2023-06-24T02:48:37;10.27;;;9.27;;
830;SDS011;397;50.564;7.272;2023-06-24T02:51:06;10.67;;;9.70;;
830;SDS011;397;50.564;7.272;2023-06-24T02:53:40;9.07;;;8.17;;
830;SDS011;397;50.564;7.272;2023-06-24T02:56:05;11.67;;;8.80;;
830;SDS011;397;50.564;7.272;2023-06-24T02:58:36;9.00;;;8.20;;
830;SDS011;397;50.564;7.272;2023-06-24T03:01:05;13.50;;;7.83;;
830;SDS011;397;50.564;7.272;2023-06-24T03:03:34;8.87;;;8.00;;
830;SDS011;397;50.564;7.272;2023-06-24T03:06:02;9.10;;;8.20;;
830;SDS011;397;50.564;7.272;2023-06-24T03:08:30;9.07;;;8.20;;
830;SDS011;397;50.564;7.272;2023-06-24T03:10:58;11.13;;;8.77;;
830;SDS011;397;50.564;7.272;2023-06-24T03:13:26;10.03;;;8.57;;
830;SDS011;397;50.564;7.272;2023-06-24T03:15:53;12.50;;;9.80;;
830;SDS011;397;50.564;7.272;2023-06-24T03:18:21;10.73;;;9.83;;
830;SDS011;397;50.564;7.272;2023-06-24T03:20:48;10.00;;;8.73;;
830;SDS011;397;50.564;7.272;2023-06-24T03:23:16;11.13;;;9.37;;
830;SDS011;397;50.564;7.272;2023-06-24T03:25:43;8.70;;;7.90;;
830;SDS011;397;50.564;7.272;2023-06-24T03:28:11;9.93;;;8.40;;
830;SDS011;397;50.564;7.272;2023-06-24T03:30:38;10.53;;;8.33;;
830;SDS011;397;50.564;7.272;2023-06-24T03:33:06;8.30;;;7.47;;
830;SDS011;397;50.564;7.272;2023-06-24T03:35:33;8.57;;;7.67;;
830;SDS011;397;50.564;7.272;2023-06-24T03:38:00;9.13;;;8.23;;
830;SDS011;397;50.564;7.272;2023-06-24T03:40:28;9.00;;;7.70;;
830;SDS011;397;50.564;7.272;2023-06-24T03:42:56;8.93;;;8.13;;
830;SDS011;397;50.564;7.272;2023-06-24T03:45:23;9.43;;;8.43;;
830;SDS011;397;50.564;7.272;2023-06-24T03:47:51;9.93;;;8.77;;
830;SDS011;397;50.564;7.272;2023-06-24T03:50:18;9.47;;;8.57;;
830;SDS011;397;50.564;7.272;2023-06-24T03:52:46;15.47;;;9.00;;
830;SDS011;397;50.564;7.272;2023-06-24T03:55:14;9.63;;;8.73;;
830;SDS011;397;50.564;7.272;2023-06-24T03:57:41;8.53;;;7.63;;
830;SDS011;397;50.564;7.272;2023-06-24T04:00:09;9.60;;;8.60;;
830;SDS011;397;50.564;7.272;2023-06-24T04:02:45;10.00;;;9.00;;
830;SDS011;397;50.564;7.272;2023-06-24T04:05:13;10.00;;;8.63;;
830;SDS011;397;50.564;7.272;2023-06-24T04:07:40;8.70;;;7.90;;
830;SDS011;397;50.564;7.272;2023-06-24T04:10:09;8.97;;;8.17;;
830;SDS011;397;50.564;7.272;2023-06-24T04:12:37;9.23;;;7.73;;
830;SDS011;397;50.564;7.272;2023-06-24T04:15:05;8.90;;;8.00;;
830;SDS011;397;50.564;7.272;2023-06-24T04:17:33;8.77;;;8.00;;
830;SDS011;397;50.564;7.272;2023-06-24T04:20:00;8.47;;;7.60;;
830;SDS011;397;50.564;7.272;2023-06-24T04:22:30;9.53;;;8.50;;
830;SDS011;397;50.564;7.272;2023-06-24T04:24:57;11.00;;;9.70;;
830;SDS011;397;50.564;7.272;2023-06-24T04:27:25;10.10;;;9.20;;
830;SDS011;397;50.564;7.272;2023-06-24T04:29:52;13.50;;;10.10;;
830;SDS011;397;50.564;7.272;2023-06-24T04:32:20;10.97;;;8.83;;
830;SDS011;397;50.564;7.272;2023-06-24T04:34:47;14.73;;;10.10;;
830;SDS011;397;50.564;7.272;2023-06-24T04:37:15;10.17;;;9.27;;
830;SDS011;397;50.564;7.272;2023-06-24T04:39:43;9.87;;;8.80;;
830;SDS011;397;50.564;7.272;2023-06-24T04:42:11;10.50;;;9.50;;
830;SDS011;397;50.564;7.272;2023-06-24T04:44:40;9.80;;;8.23;;
830;SDS011;397;50.564;7.272;2023-06-24T04:47:08;9.93;;;8.43;;
830;SDS011;397;50.564;7.272;2023-06-24T04:49:35;11.53;;;8.63;;
830;SDS011;397;50.564;7.272;2023-06-24T04:52:03;9.43;;;8.53;;
830;SDS011;397;50.564;7.272;2023-06-24T04:54:32;9.77;;;8.77;;
830;SDS011;397;50.564;7.272;2023-06-24T04:57:00;8.77;;;7.97;;
830;SDS011;397;50.564;7.272;2023-06-24T04:59:27;8.00;;;7.30;;
830;SDS011;397;50.564;7.272;2023-06-24T05:01:55;15.57;;;8.77;;
830;SDS011;397;50.564;7.272;2023-06-24T05:04:22;9.07;;;7.80;;
830;SDS011;397;50.564;7.272;2023-06-24T05:06:49;8.87;;;8.07;;
830;SDS011;397;50.564;7.272;2023-06-24T05:09:17;8.80;;;7.97;;
830;SDS011;397;50.564;7.272;2023-06-24T05:11:45;8.87;;;7.97;;
830;SDS011;397;50.564;7.272;2023-06-24T05:14:12;8.90;;;8.10;;
830;SDS011;397;50.564;7.272;2023-06-24T05:16:40;9.70;;;8.90;;
830;SDS011;397;50.564;7.272;2023-06-24T05:19:07;11.47;;;8.73;;
830;SDS011;397;50.564;7.272;2023-06-24T05:21:35;10.17;;;8.20;;
830;SDS011;397;50.564;7.272;2023-06-24T05:24:02;8.67;;;7.87;;
830;SDS011;397;50.564;7.272;2023-06-24T05:26:30;9.83;;;8.90;;
830;SDS011;397;50.564;7.272;2023-06-24T05:28:57;9.83;;;8.83;;
830;SDS011;397;50.564;7.272;2023-06-24T05:31:25;13.47;;;8.97;;
830;SDS011;397;50.564;7.272;2023-06-24T05:33:52;9.27;;;8.30;;
830;SDS011;397;50.564;7.272;2023-06-24T05:36:20;10.70;;;9.67;;
830;SDS011;397;50.564;7.272;2023-06-24T05:38:48;14.33;;;10.53;;
830;SDS011;397;50.564;7.272;2023-06-24T05:41:15;11.30;;;10.40;;
830;SDS011;397;50.564;7.272;2023-06-24T05:43:43;10.90;;;9.97;;
830;SDS011;397;50.564;7.272;2023-06-24T05:46:10;10.57;;;9.60;;
830;SDS011;397;50.564;7.272;2023-06-24T05:48:38;10.90;;;10.00;;
830;SDS011;397;50.564;7.272;2023-06-24T05:51:07;9.20;;;8.30;;
830;SDS011;397;50.564;7.272;2023-06-24T05:53:35;11.57;;;8.93;;
830;SDS011;397;50.564;7.272;2023-06-24T05:56:02;10.13;;;8.50;;
830;SDS011;397;50.564;7.272;2023-06-24T05:58:30;9.93;;;8.77;;
830;SDS011;397;50.564;7.272;2023-06-24T06:00:58;9.90;;;9.00;;
830;SDS011;397;50.564;7.272;2023-06-24T06:03:26;11.37;;;9.27;;
830;SDS011;397;50.564;7.272;2023-06-24T06:05:54;9.53;;;8.73;;
830;SDS011;397;50.564;7.272;2023-06-24T06:08:21;10.80;;;9.90;;
830;SDS011;397;50.564;7.272;2023-06-24T06:10:49;9.73;;;8.93;;
830;SDS011;397;50.564;7.272;2023-06-24T06:13:16;10.60;;;9.60;;
830;SDS011;397;50.564;7.272;2023-06-24T06:15:44;9.93;;;8.50;;
830;SDS011;397;50.564;7.272;2023-06-24T06:18:12;9.70;;;8.80;;
830;SDS011;397;50.564;7.272;2023-06-24T06:20:40;9.03;;;8.27;;
830;SDS011;397;50.564;7.272;2023-06-24T06:23:07;11.40;;;10.40;;
830;SDS011;397;50.564;7.272;2023-06-24T06:25:35;11.03;;;10.03;;
830;SDS011;397;50.564;7.272;2023-06-24T06:28:04;10.80;;;9.50;;
830;SDS011;397;50.564;7.272;2023-06-24T06:30:31;10.23;;;9.17;;
830;SDS011;397;50.564;7.272;2023-06-24T06:32:59;9.25;;;8.55;;
830;SDS011;397;50.564;7.272;2023-06-24T06:35:26;10.60;;;9.30;;
830;SDS011;397;50.564;7.272;2023-06-24T06:37:54;9.93;;;9.03;;
830;SDS011;397;50.564;7.272;2023-06-24T06:40:21;10.13;;;9.33;;
830;SDS011;397;50.564;7.272;2023-06-24T06:42:49;11.63;;;9.30;;
830;SDS011;397;50.564;7.272;2023-06-24T06:45:17;9.40;;;8.60;;
830;SDS011;397;50.564;7.272;2023-06-24T06:47:45;9.33;;;8.43;;
830;SDS011;397;50.564;7.272;2023-06-24T06:50:13;11.23;;;10.20;;
830;SDS011;397;50.564;7.272;2023-06-24T06:52:40;10.30;;;9.40;;
830;SDS011;397;50.564;7.272;2023-06-24T06:55:08;10.73;;;9.70;;
830;SDS011;397;50.564;7.272;2023-06-24T06:57:36;10.77;;;8.87;;
830;SDS011;397;50.564;7.272;2023-06-24T07:00:03;15.30;;;9.17;;
830;SDS011;397;50.564;7.272;2023-06-24T07:02:32;9.70;;;8.80;;
830;SDS011;397;50.564;7.272;2023-06-24T07:04:59;9.77;;;8.60;;
830;SDS011;397;50.564;7.272;2023-06-24T07:07:27;10.93;;;9.93;;
830;SDS011;397;50.564;7.272;2023-06-24T07:09:54;10.20;;;9.30;;
830;SDS011;397;50.564;7.272;2023-06-24T07:12:22;8.67;;;7.97;;
830;SDS011;397;50.564;7.272;2023-06-24T07:14:50;9.80;;;9.00;;
830;SDS011;397;50.564;7.272;2023-06-24T07:17:17;9.60;;;8.70;;
830;SDS011;397;50.564;7.272;2023-06-24T07:19:45;10.03;;;9.03;;
830;SDS011;397;50.564;7.272;2023-06-24T07:22:13;10.43;;;9.53;;
830;SDS011;397;50.564;7.272;2023-06-24T07:24:41;9.33;;;8.43;;
830;SDS011;397;50.564;7.272;2023-06-24T07:27:08;11.13;;;10.13;;
830;SDS011;397;50.564;7.272;2023-06-24T07:29:36;10.70;;;9.70;;
830;SDS011;397;50.564;7.272;2023-06-24T07:32:04;12.27;;;11.03;;
830;SDS011;397;50.564;7.272;2023-06-24T07:34:33;11.07;;;10.00;;
830;SDS011;397;50.564;7.272;2023-06-24T07:37:01;11.23;;;10.23;;
830;SDS011;397;50.564;7.272;2023-06-24T07:39:28;10.50;;;9.40;;
830;SDS011;397;50.564;7.272;2023-06-24T07:41:56;11.23;;;10.23;;
830;SDS011;397;50.564;7.272;2023-06-24T07:44:23;11.47;;;10.33;;
830;SDS011;397;50.564;7.272;2023-06-24T07:46:51;10.83;;;9.83;;
830;SDS011;397;50.564;7.272;2023-06-24T07:49:18;10.20;;;9.30;;
830;SDS011;397;50.564;7.272;2023-06-24T07:51:46;11.40;;;10.40;;
830;SDS011;397;50.564;7.272;2023-06-24T07:54:13;12.20;;;11.10;;
830;SDS011;397;50.564;7.272;2023-06-24T07:56:41;11.10;;;10.10;;
830;SDS011;397;50.564;7.272;2023-06-24T07:59:08;11.40;;;9.27;;
830;SDS011;397;50.564;7.272;2023-06-24T08:01:36;9.03;;;8.23;;
830;SDS011;397;50.564;7.272;2023-06-24T08:04:03;9.00;;;8.20;;
830;SDS011;397;50.564;7.272;2023-06-24T08:06:31;12.53;;;9.40;;
830;SDS011;397;50.564;7.272;2023-06-24T08:08:58;9.50;;;8.60;;
830;SDS011;397;50.564;7.272;2023-06-24T08:11:26;10.73;;;8.60;;
830;SDS011;397;50.564;7.272;2023-06-24T08:13:54;14.87;;;10.50;;
830;SDS011;397;50.564;7.272;2023-06-24T08:16:21;8.60;;;7.50;;
830;SDS011;397;50.564;7.272;2023-06-24T08:18:49;8.57;;;7.47;;
830;SDS011;397;50.564;7.272;2023-06-24T08:21:16;7.03;;;6.43;;
830;SDS011;397;50.564;7.272;2023-06-24T08:23:44;9.73;;;7.80;;
830;SDS011;397;50.564;7.272;2023-06-24T08:26:12;7.20;;;6.50;;
830;SDS011;397;50.564;7.272;2023-06-24T08:28:39;8.00;;;7.20;;
830;SDS011;397;50.564;7.272;2023-06-24T08:31:07;8.17;;;7.40;;
830;SDS011;397;50.564;7.272;2023-06-24T08:33:34;8.63;;;7.27;;
830;SDS011;397;50.564;7.272;2023-06-24T08:36:04;7.67;;;6.47;;
830;SDS011;397;50.564;7.272;2023-06-24T08:38:34;8.73;;;5.90;;
830;SDS011;397;50.564;7.272;2023-06-24T08:41:02;7.57;;;6.87;;
830;SDS011;397;50.564;7.272;2023-06-24T08:43:29;9.23;;;6.33;;
830;SDS011;397;50.564;7.272;2023-06-24T08:45:57;6.60;;;6.00;;
830;SDS011;397;50.564;7.272;2023-06-24T08:48:24;8.17;;;5.77;;
830;SDS011;397;50.564;7.272;2023-06-24T08:50:53;7.53;;;6.40;;
830;SDS011;397;50.564;7.272;2023-06-24T08:53:23;7.53;;;6.60;;
830;SDS011;397;50.564;7.272;2023-06-24T08:55:53;7.40;;;6.70;;
830;SDS011;397;50.564;7.272;2023-06-24T08:58:22;7.40;;;6.70;;
830;SDS011;397;50.564;7.272;2023-06-24T09:00:50;8.63;;;6.23;;
830;SDS011;397;50.564;7.272;2023-06-24T09:03:17;7.53;;;6.73;;
830;SDS011;397;50.564;7.272;2023-06-24T09:05:45;8.23;;;6.20;;
830;SDS011;397;50.564;7.272;2023-06-24T09:08:14;7.23;;;6.53;;
830;SDS011;397;50.564;7.272;2023-06-24T09:10:44;7.67;;;5.80;;
830;SDS011;397;50.564;7.272;2023-06-24T09:13:11;6.97;;;5.80;;
830;SDS011;397;50.564;7.272;2023-06-24T09:15:39;6.50;;;5.67;;
830;SDS011;397;50.564;7.272;2023-06-24T09:18:06;6.60;;;6.00;;
830;SDS011;397;50.564;7.272;2023-06-24T09:20:35;7.00;;;5.50;;
830;SDS011;397;50.564;7.272;2023-06-24T09:23:06;7.57;;;5.57;;
830;SDS011;397;50.564;7.272;2023-06-24T09:25:34;6.97;;;5.30;;
830;SDS011;397;50.564;7.272;2023-06-24T09:28:01;5.30;;;4.57;;
830;SDS011;397;50.564;7.272;2023-06-24T09:30:29;7.47;;;5.67;;
830;SDS011;397;50.564;7.272;2023-06-24T09:32:57;8.23;;;5.50;;
830;SDS011;397;50.564;7.272;2023-06-24T09:35:25;5.00;;;4.40;;
830;SDS011;397;50.564;7.272;2023-06-24T09:37:53;6.17;;;5.57;;
830;SDS011;397;50.564;7.272;2023-06-24T09:40:22;6.07;;;5.00;;
830;SDS011;397;50.564;7.272;2023-06-24T09:42:56;9.83;;;5.60;;
830;SDS011;397;50.564;7.272;2023-06-24T09:45:27;11.80;;;5.20;;
830;SDS011;397;50.564;7.272;2023-06-24T09:47:56;5.60;;;5.00;;
830;SDS011;397;50.564;7.272;2023-06-24T09:50:24;11.10;;;10.10;;
830;SDS011;397;50.564;7.272;2023-06-24T09:52:52;6.60;;;5.30;;
830;SDS011;397;50.564;7.272;2023-06-24T09:55:21;6.60;;;5.73;;
830;SDS011;397;50.564;7.272;2023-06-24T09:57:50;6.70;;;5.33;;
830;SDS011;397;50.564;7.272;2023-06-24T10:00:19;6.70;;;4.90;;
830;SDS011;397;50.564;7.272;2023-06-24T10:02:48;6.33;;;5.73;;
830;SDS011;397;50.564;7.272;2023-06-24T10:05:17;7.50;;;5.00;;
830;SDS011;397;50.564;7.272;2023-06-24T10:07:45;7.47;;;5.13;;
830;SDS011;397;50.564;7.272;2023-06-24T10:10:13;7.23;;;6.27;;
830;SDS011;397;50.564;7.272;2023-06-24T10:12:41;6.07;;;5.33;;
830;SDS011;397;50.564;7.272;2023-06-24T10:15:09;9.70;;;5.70;;
830;SDS011;397;50.564;7.272;2023-06-24T10:17:38;5.90;;;5.20;;
830;SDS011;397;50.564;7.272;2023-06-24T10:20:05;7.63;;;6.03;;
830;SDS011;397;50.564;7.272;2023-06-24T10:22:33;7.63;;;6.83;;
830;SDS011;397;50.564;7.272;2023-06-24T10:25:04;6.00;;;5.50;;
830;SDS011;397;50.564;7.272;2023-06-24T10:27:39;6.77;;;6.17;;
830;SDS011;397;50.564;7.272;2023-06-24T10:30:08;8.60;;;6.40;;
830;SDS011;397;50.564;7.272;2023-06-24T10:32:41;7.00;;;6.33;;
830;SDS011;397;50.564;7.272;2023-06-24T10:35:26;7.90;;;7.20;;
830;SDS011;397;50.564;7.272;2023-06-24T10:37:59;7.00;;;5.67;;
830;SDS011;397;50.564;7.272;2023-06-24T10:40:34;7.30;;;6.23;;
830;SDS011;397;50.564;7.272;2023-06-24T10:43:40;6.90;;;6.23;;
830;SDS011;397;50.564;7.272;2023-06-24T10:45:55;7.83;;;5.87;;
830;SDS011;397;50.564;7.272;2023-06-24T10:48:24;7.10;;;6.50;;
830;SDS011;397;50.564;7.272;2023-06-24T10:50:52;7.23;;;6.53;;
830;SDS011;397;50.564;7.272;2023-06-24T10:53:19;9.37;;;7.20;;
830;SDS011;397;50.564;7.272;2023-06-24T10:55:48;8.73;;;7.17;;
830;SDS011;397;50.564;7.272;2023-06-24T10:58:16;6.77;;;6.00;;
830;SDS011;397;50.564;7.272;2023-06-24T11:00:44;6.73;;;6.13;;
830;SDS011;397;50.564;7.272;2023-06-24T11:03:13;7.53;;;6.80;;
830;SDS011;397;50.564;7.272;2023-06-24T11:05:42;11.20;;;6.77;;
830;SDS011;397;50.564;7.272;2023-06-24T11:08:12;8.23;;;7.40;;
830;SDS011;397;50.564;7.272;2023-06-24T11:13:29;12.10;;;6.33;;
830;SDS011;397;50.564;7.272;2023-06-24T11:15:59;7.63;;;6.50;;
830;SDS011;397;50.564;7.272;2023-06-24T11:21:14;7.73;;;7.03;;
830;SDS011;397;50.564;7.272;2023-06-24T11:23:42;7.93;;;7.10;;
830;SDS011;397;50.564;7.272;2023-06-24T11:26:09;7.00;;;6.03;;
830;SDS011;397;50.564;7.272;2023-06-24T11:28:37;9.33;;;6.30;;
830;SDS011;397;50.564;7.272;2023-06-24T11:31:08;6.90;;;6.03;;
830;SDS011;397;50.564;7.272;2023-06-24T11:33:36;6.87;;;5.93;;
830;SDS011;397;50.564;7.272;2023-06-24T11:36:08;6.70;;;6.00;;
830;SDS011;397;50.564;7.272;2023-06-24T11:38:34;6.67;;;5.83;;
830;SDS011;397;50.564;7.272;2023-06-24T11:41:03;6.23;;;5.63;;
830;SDS011;397;50.564;7.272;2023-06-24T11:43:30;6.87;;;6.20;;
830;SDS011;397;50.564;7.272;2023-06-24T11:45:58;6.80;;;5.37;;
830;SDS011;397;50.564;7.272;2023-06-24T11:48:28;8.20;;;5.97;;
830;SDS011;397;50.564;7.272;2023-06-24T11:50:57;6.70;;;5.20;;
830;SDS011;397;50.564;7.272;2023-06-24T11:53:40;9.53;;;6.00;;
830;SDS011;397;50.564;7.272;2023-06-24T11:56:12;6.07;;;5.43;;
830;SDS011;397;50.564;7.272;2023-06-24T11:58:41;6.50;;;5.90;;
830;SDS011;397;50.564;7.272;2023-06-24T12:01:10;9.13;;;7.30;;
830;SDS011;397;50.564;7.272;2023-06-24T12:03:37;6.70;;;5.73;;
830;SDS011;397;50.564;7.272;2023-06-24T12:06:04;6.50;;;5.83;;
830;SDS011;397;50.564;7.272;2023-06-24T12:08:32;5.63;;;5.13;;
830;SDS011;397;50.564;7.272;2023-06-24T12:10:59;9.00;;;6.13;;
830;SDS011;397;50.564;7.272;2023-06-24T12:13:27;6.90;;;5.40;;
830;SDS011;397;50.564;7.272;2023-06-24T12:15:54;8.13;;;7.03;;
830;SDS011;397;50.564;7.272;2023-06-24T12:18:22;7.17;;;6.30;;
830;SDS011;397;50.564;7.272;2023-06-24T12:20:49;6.47;;;5.83;;
830;SDS011;397;50.564;7.272;2023-06-24T12:23:17;6.70;;;6.00;;
830;SDS011;397;50.564;7.272;2023-06-24T12:25:45;6.77;;;6.10;;
830;SDS011;397;50.564;7.272;2023-06-24T12:28:12;7.43;;;5.87;;
830;SDS011;397;50.564;7.272;2023-06-24T12:30:40;6.67;;;5.97;;
830;SDS011;397;50.564;7.272;2023-06-24T12:33:07;6.00;;;5.40;;
830;SDS011;397;50.564;7.272;2023-06-24T12:35:35;7.00;;;6.30;;
830;SDS011;397;50.564;7.272;2023-06-24T12:38:02;6.50;;;5.90;;
830;SDS011;397;50.564;7.272;2023-06-24T12:40:30;7.57;;;6.13;;
830;SDS011;397;50.564;7.272;2023-06-24T12:42:57;8.93;;;5.33;;
830;SDS011;397;50.564;7.272;2023-06-24T12:45:25;6.57;;;5.97;;
830;SDS011;397;50.564;7.272;2023-06-24T12:47:53;6.50;;;5.87;;
830;SDS011;397;50.564;7.272;2023-06-24T12:50:20;6.60;;;5.47;;
830;SDS011;397;50.564;7.272;2023-06-24T12:52:48;6.97;;;6.30;;
830;SDS011;397;50.564;7.272;2023-06-24T12:55:15;7.47;;;6.40;;
830;SDS011;397;50.564;7.272;2023-06-24T12:57:43;6.50;;;5.90;;
830;SDS011;397;50.564;7.272;2023-06-24T13:00:11;6.10;;;5.50;;
830;SDS011;397;50.564;7.272;2023-06-24T13:02:39;9.00;;;6.07;;
830;SDS011;397;50.564;7.272;2023-06-24T13:05:07;5.60;;;4.97;;
830;SDS011;397;50.564;7.272;2023-06-24T13:07:34;6.50;;;5.80;;
830;SDS011;397;50.564;7.272;2023-06-24T13:10:02;6.23;;;5.63;;
830;SDS011;397;50.564;7.272;2023-06-24T13:12:32;8.00;;;5.50;;
830;SDS011;397;50.564;7.272;2023-06-24T13:15:00;7.07;;;5.77;;
830;SDS011;397;50.564;7.272;2023-06-24T13:17:29;7.30;;;5.93;;
830;SDS011;397;50.564;7.272;2023-06-24T13:19:57;5.77;;;5.17;;
830;SDS011;397;50.564;7.272;2023-06-24T13:22:24;6.90;;;6.20;;
830;SDS011;397;50.564;7.272;2023-06-24T13:24:52;6.73;;;5.70;;
830;SDS011;397;50.564;7.272;2023-06-24T13:27:19;7.10;;;6.40;;
830;SDS011;397;50.564;7.272;2023-06-24T13:29:47;6.53;;;5.37;;
830;SDS011;397;50.564;7.272;2023-06-24T13:32:14;5.67;;;5.17;;
830;SDS011;397;50.564;7.272;2023-06-24T13:34:42;5.70;;;5.03;;
830;SDS011;397;50.564;7.272;2023-06-24T13:37:09;7.73;;;5.50;;
830;SDS011;397;50.564;7.272;2023-06-24T13:39:37;7.07;;;5.10;;
830;SDS011;397;50.564;7.272;2023-06-24T13:42:05;6.60;;;5.50;;
830;SDS011;397;50.564;7.272;2023-06-24T13:44:33;5.50;;;5.00;;
830;SDS011;397;50.564;7.272;2023-06-24T13:47:00;6.50;;;5.20;;
830;SDS011;397;50.564;7.272;2023-06-24T13:49:28;6.70;;;5.60;;
830;SDS011;397;50.564;7.272;2023-06-24T13:51:55;6.50;;;5.90;;
830;SDS011;397;50.564;7.272;2023-06-24T13:54:23;6.00;;;5.40;;
830;SDS011;397;50.564;7.272;2023-06-24T13:56:50;6.97;;;5.67;;
830;SDS011;397;50.564;7.272;2023-06-24T13:59:18;6.73;;;6.00;;
830;SDS011;397;50.564;7.272;2023-06-24T14:01:45;6.47;;;5.80;;
830;SDS011;397;50.564;7.272;2023-06-24T14:04:13;8.20;;;5.97;;
830;SDS011;397;50.564;7.272;2023-06-24T14:06:40;6.70;;;5.73;;
830;SDS011;397;50.564;7.272;2023-06-24T14:09:09;7.33;;;6.60;;
830;SDS011;397;50.564;7.272;2023-06-24T14:11:36;6.87;;;6.13;;
830;SDS011;397;50.564;7.272;2023-06-24T14:14:04;6.80;;;5.97;;
830;SDS011;397;50.564;7.272;2023-06-24T14:16:31;6.57;;;5.87;;
830;SDS011;397;50.564;7.272;2023-06-24T14:18:58;6.47;;;5.87;;
830;SDS011;397;50.564;7.272;2023-06-24T14:21:26;6.40;;;5.80;;
830;SDS011;397;50.564;7.272;2023-06-24T14:23:55;6.60;;;5.90;;
830;SDS011;397;50.564;7.272;2023-06-24T14:26:23;9.67;;;5.53;;
830;SDS011;397;50.564;7.272;2023-06-24T14:28:51;6.10;;;5.50;;
830;SDS011;397;50.564;7.272;2023-06-24T14:31:18;6.67;;;5.90;;
830;SDS011;397;50.564;7.272;2023-06-24T14:33:45;6.93;;;6.30;;
830;SDS011;397;50.564;7.272;2023-06-24T14:36:13;6.40;;;5.70;;
830;SDS011;397;50.564;7.272;2023-06-24T14:38:40;6.00;;;5.40;;
830;SDS011;397;50.564;7.272;2023-06-24T14:41:09;5.70;;;5.07;;
830;SDS011;397;50.564;7.272;2023-06-24T14:43:37;7.00;;;5.70;;
830;SDS011;397;50.564;7.272;2023-06-24T14:46:05;6.17;;;5.53;;
830;SDS011;397;50.564;7.272;2023-06-24T14:48:32;7.27;;;6.17;;
830;SDS011;397;50.564;7.272;2023-06-24T14:51:00;6.50;;;5.90;;
830;SDS011;397;50.564;7.272;2023-06-24T14:53:27;6.50;;;5.80;;
830;SDS011;397;50.564;7.272;2023-06-24T14:55:55;7.43;;;6.50;;
830;SDS011;397;50.564;7.272;2023-06-24T14:58:22;7.03;;;6.30;;
830;SDS011;397;50.564;7.272;2023-06-24T15:00:50;7.23;;;6.63;;
830;SDS011;397;50.564;7.272;2023-06-24T15:03:17;6.93;;;6.23;;
830;SDS011;397;50.564;7.272;2023-06-24T15:05:46;5.83;;;5.23;;
830;SDS011;397;50.564;7.272;2023-06-24T15:08:14;6.27;;;5.50;;
830;SDS011;397;50.564;7.272;2023-06-24T15:10:41;6.97;;;5.80;;
830;SDS011;397;50.564;7.272;2023-06-24T15:13:09;6.47;;;5.87;;
830;SDS011;397;50.564;7.272;2023-06-24T15:15:36;6.57;;;5.97;;
830;SDS011;397;50.564;7.272;2023-06-24T15:18:04;7.90;;;6.23;;
830;SDS011;397;50.564;7.272;2023-06-24T15:20:31;6.10;;;5.50;;
830;SDS011;397;50.564;7.272;2023-06-24T15:22:59;8.87;;;5.20;;
830;SDS011;397;50.564;7.272;2023-06-24T15:25:26;6.87;;;6.20;;
830;SDS011;397;50.564;7.272;2023-06-24T15:27:54;6.50;;;5.90;;
830;SDS011;397;50.564;7.272;2023-06-24T15:30:21;6.27;;;5.67;;
830;SDS011;397;50.564;7.272;2023-06-24T15:32:50;6.70;;;6.00;;
830;SDS011;397;50.564;7.272;2023-06-24T15:35:17;6.43;;;5.83;;
830;SDS011;397;50.564;7.272;2023-06-24T15:37:45;7.03;;;6.43;;
830;SDS011;397;50.564;7.272;2023-06-24T15:40:12;7.53;;;6.77;;
830;SDS011;397;50.564;7.272;2023-06-24T15:42:40;6.43;;;5.83;;
830;SDS011;397;50.564;7.272;2023-06-24T15:45:08;6.93;;;6.23;;
830;SDS011;397;50.564;7.272;2023-06-24T15:47:36;6.70;;;5.90;;
830;SDS011;397;50.564;7.272;2023-06-24T15:50:04;8.57;;;6.10;;
830;SDS011;397;50.564;7.272;2023-06-24T15:52:32;7.83;;;5.83;;
830;SDS011;397;50.564;7.272;2023-06-24T15:54:59;6.80;;;6.20;;
830;SDS011;397;50.564;7.272;2023-06-24T15:57:27;8.20;;;6.27;;
830;SDS011;397;50.564;7.272;2023-06-24T15:59:54;6.70;;;6.10;;